sensor_id;sensor_type;location;lat;lon;timestamp;temperature;humidity
14031;DHT22;7090;49.436;8.490;2022-12-11T00:01:23;-2.20;99.90
14031;DHT22;7090;49.436;8.490;2022-12-11T00:03:49;-2.30;99.90
14031;DHT22;7090;49.436;8.490;2022-12-11T00:06:17;-2.30;99.90
14031;DHT22;7090;49.436;8.490;2022-12-11T00:08:44;-2.10;99.90
14031;DHT22;7090;49.436;8.490;2022-12-11T00:11:14;-1.90;99.90
14031;DHT22;7090;49.436;8.490;2022-12-11T00:13:40;-1.90;99.90
14031;DHT22;7090;49.436;8.490;2022-12-11T00:16:07;-1.80;99.90
14031;DHT22;7090;49.436;8.490;2022-12-11T00:18:32;-1.70;99.90
14031;DHT22;7090;49.436;8.490;2022-12-11T00:21:05;-1.70;99.90
14031;DHT22;7090;49.436;8.490;2022-12-11T00:23:32;-1.60;99.90
14031;DHT22;7090;49.436;8.490;2022-12-11T00:25:58;-1.50;99.90
14031;DHT22;7090;49.436;8.490;2022-12-11T00:28:24;-1.50;99.90
14031;DHT22;7090;49.436;8.490;2022-12-11T00:30:49;-1.60;99.90
14031;DHT22;7090;49.436;8.490;2022-12-11T00:33:15;-1.50;99.90
14031;DHT22;7090;49.436;8.490;2022-12-11T00:35:43;-1.50;99.90
14031;DHT22;7090;49.436;8.490;2022-12-11T00:38:17;-1.50;99.90
14031;DHT22;7090;49.436;8.490;2022-12-11T00:40:43;-1.50;99.90
14031;DHT22;7090;49.436;8.490;2022-12-11T00:43:09;-1.50;99.90
14031;DHT22;7090;49.436;8.490;2022-12-11T00:45:36;-1.50;99.90
14031;DHT22;7090;49.436;8.490;2022-12-11T00:48:02;-1.30;99.90
14031;DHT22;7090;49.436;8.490;2022-12-11T00:50:27;-1.20;99.90
14031;DHT22;7090;49.436;8.490;2022-12-11T00:52:53;-1.10;99.90
14031;DHT22;7090;49.436;8.490;2022-12-11T00:55:19;-1.00;99.90
14031;DHT22;7090;49.436;8.490;2022-12-11T00:57:44;-1.10;99.90
14031;DHT22;7090;49.436;8.490;2022-12-11T01:00:10;-1.00;99.90
14031;DHT22;7090;49.436;8.490;2022-12-11T01:02:37;-1.00;99.90
14031;DHT22;7090;49.436;8.490;2022-12-11T01:05:02;-1.00;99.90
14031;DHT22;7090;49.436;8.490;2022-12-11T01:07:28;-0.90;99.90
14031;DHT22;7090;49.436;8.490;2022-12-11T01:09:54;-0.80;99.90
14031;DHT22;7090;49.436;8.490;2022-12-11T01:12:38;-0.80;99.90
14031;DHT22;7090;49.436;8.490;2022-12-11T01:15:04;-0.80;99.90
14031;DHT22;7090;49.436;8.490;2022-12-11T01:17:30;-0.80;99.90
14031;DHT22;7090;49.436;8.490;2022-12-11T01:19:56;-0.90;99.90
14031;DHT22;7090;49.436;8.490;2022-12-11T01:22:21;-0.90;99.90
14031;DHT22;7090;49.436;8.490;2022-12-11T01:24:47;-0.80;99.90
14031;DHT22;7090;49.436;8.490;2022-12-11T01:27:13;-0.80;99.90
14031;DHT22;7090;49.436;8.490;2022-12-11T01:29:39;-0.90;99.90
14031;DHT22;7090;49.436;8.490;2022-12-11T01:32:04;-0.90;99.90
14031;DHT22;7090;49.436;8.490;2022-12-11T01:34:31;-1.00;99.90
14031;DHT22;7090;49.436;8.490;2022-12-11T01:36:57;-1.00;99.90
14031;DHT22;7090;49.436;8.490;2022-12-11T01:39:23;-1.00;99.90
14031;DHT22;7090;49.436;8.490;2022-12-11T01:41:48;-0.90;99.90
14031;DHT22;7090;49.436;8.490;2022-12-11T01:46:40;-0.80;99.90
14031;DHT22;7090;49.436;8.490;2022-12-11T01:49:09;-0.80;99.90
14031;DHT22;7090;49.436;8.490;2022-12-11T01:52:01;-0.90;99.90
14031;DHT22;7090;49.436;8.490;2022-12-11T01:54:26;-0.90;99.90
14031;DHT22;7090;49.436;8.490;2022-12-11T01:56:53;-0.90;99.90
14031;DHT22;7090;49.436;8.490;2022-12-11T01:59:23;-0.90;99.90
14031;DHT22;7090;49.436;8.490;2022-12-11T02:02:08;-1.00;99.90
14031;DHT22;7090;49.436;8.490;2022-12-11T02:04:38;-1.10;99.90
14031;DHT22;7090;49.436;8.490;2022-12-11T02:07:04;-1.20;99.90
14031;DHT22;7090;49.436;8.490;2022-12-11T02:09:33;-1.30;99.90
14031;DHT22;7090;49.436;8.490;2022-12-11T02:14:58;-1.20;99.90
14031;DHT22;7090;49.436;8.490;2022-12-11T02:17:41;-1.20;99.90
14031;DHT22;7090;49.436;8.490;2022-12-11T02:20:26;-1.30;99.90
14031;DHT22;7090;49.436;8.490;2022-12-11T02:25:56;-1.40;99.90
14031;DHT22;7090;49.436;8.490;2022-12-11T02:28:33;-1.40;99.90
14031;DHT22;7090;49.436;8.490;2022-12-11T02:31:15;-1.40;99.90
14031;DHT22;7090;49.436;8.490;2022-12-11T02:34:05;-1.40;99.90
14031;DHT22;7090;49.436;8.490;2022-12-11T02:36:36;-1.30;99.90
14031;DHT22;7090;49.436;8.490;2022-12-11T02:39:04;-1.30;99.90
14031;DHT22;7090;49.436;8.490;2022-12-11T02:41:32;-1.30;99.90
14031;DHT22;7090;49.436;8.490;2022-12-11T02:43:58;-1.30;99.90
14031;DHT22;7090;49.436;8.490;2022-12-11T02:46:27;-1.20;99.90
14031;DHT22;7090;49.436;8.490;2022-12-11T02:48:54;-1.30;99.90
14031;DHT22;7090;49.436;8.490;2022-12-11T02:51:25;-1.40;99.90
14031;DHT22;7090;49.436;8.490;2022-12-11T02:53:55;-1.40;99.90
14031;DHT22;7090;49.436;8.490;2022-12-11T02:56:28;-1.40;99.90
14031;DHT22;7090;49.436;8.490;2022-12-11T02:58:59;-1.40;99.90
14031;DHT22;7090;49.436;8.490;2022-12-11T03:01:25;-1.40;99.90
14031;DHT22;7090;49.436;8.490;2022-12-11T03:03:52;-1.40;99.90
14031;DHT22;7090;49.436;8.490;2022-12-11T03:06:21;-1.30;99.90
14031;DHT22;7090;49.436;8.490;2022-12-11T03:08:48;-1.30;99.90
14031;DHT22;7090;49.436;8.490;2022-12-11T03:11:16;-1.30;99.90
14031;DHT22;7090;49.436;8.490;2022-12-11T03:13:42;-1.40;99.90
14031;DHT22;7090;49.436;8.490;2022-12-11T03:16:36;-1.30;99.90
14031;DHT22;7090;49.436;8.490;2022-12-11T03:21:52;-1.20;99.90
14031;DHT22;7090;49.436;8.490;2022-12-11T03:26:52;-1.10;99.90
14031;DHT22;7090;49.436;8.490;2022-12-11T03:29:24;-1.10;99.90
14031;DHT22;7090;49.436;8.490;2022-12-11T03:32:17;-1.20;99.90
14031;DHT22;7090;49.436;8.490;2022-12-11T03:34:53;-1.40;99.90
14031;DHT22;7090;49.436;8.490;2022-12-11T03:37:22;-1.50;99.90
14031;DHT22;7090;49.436;8.490;2022-12-11T03:39:51;-1.30;99.90
14031;DHT22;7090;49.436;8.490;2022-12-11T03:42:20;-1.20;99.90
14031;DHT22;7090;49.436;8.490;2022-12-11T03:44:48;-1.20;99.90
14031;DHT22;7090;49.436;8.490;2022-12-11T03:47:18;-1.10;99.90
14031;DHT22;7090;49.436;8.490;2022-12-11T03:49:45;-1.00;99.90
14031;DHT22;7090;49.436;8.490;2022-12-11T03:52:13;-1.00;99.90
14031;DHT22;7090;49.436;8.490;2022-12-11T03:54:41;-0.90;99.90
14031;DHT22;7090;49.436;8.490;2022-12-11T03:57:10;-0.90;99.90
14031;DHT22;7090;49.436;8.490;2022-12-11T03:59:37;-0.80;99.90
14031;DHT22;7090;49.436;8.490;2022-12-11T04:02:03;-0.80;99.90
14031;DHT22;7090;49.436;8.490;2022-12-11T04:04:39;-0.80;99.90
14031;DHT22;7090;49.436;8.490;2022-12-11T04:07:05;-0.80;99.90
14031;DHT22;7090;49.436;8.490;2022-12-11T04:09:31;-0.80;99.90
14031;DHT22;7090;49.436;8.490;2022-12-11T04:11:56;-0.80;99.90
14031;DHT22;7090;49.436;8.490;2022-12-11T04:14:22;-0.70;99.90
14031;DHT22;7090;49.436;8.490;2022-12-11T04:17:06;-0.60;99.90
14031;DHT22;7090;49.436;8.490;2022-12-11T04:19:32;-0.60;99.90
14031;DHT22;7090;49.436;8.490;2022-12-11T04:22:17;-0.60;99.90
14031;DHT22;7090;49.436;8.490;2022-12-11T04:25:03;-0.70;99.90
14031;DHT22;7090;49.436;8.490;2022-12-11T04:27:29;-0.60;99.90
14031;DHT22;7090;49.436;8.490;2022-12-11T04:30:15;-0.60;99.90
14031;DHT22;7090;49.436;8.490;2022-12-11T04:32:41;-0.60;99.90
14031;DHT22;7090;49.436;8.490;2022-12-11T04:35:08;-0.60;99.90
14031;DHT22;7090;49.436;8.490;2022-12-11T04:37:35;-0.60;99.90
14031;DHT22;7090;49.436;8.490;2022-12-11T04:40:05;-0.60;99.90
14031;DHT22;7090;49.436;8.490;2022-12-11T04:42:31;-0.60;99.90
14031;DHT22;7090;49.436;8.490;2022-12-11T04:44:57;-0.60;99.90
14031;DHT22;7090;49.436;8.490;2022-12-11T04:47:22;-0.70;99.90
14031;DHT22;7090;49.436;8.490;2022-12-11T04:49:48;-0.70;99.90
14031;DHT22;7090;49.436;8.490;2022-12-11T04:52:13;-0.70;99.90
14031;DHT22;7090;49.436;8.490;2022-12-11T04:54:39;-0.80;99.90
14031;DHT22;7090;49.436;8.490;2022-12-11T04:57:05;-0.80;99.90
14031;DHT22;7090;49.436;8.490;2022-12-11T04:59:33;-0.80;99.90
14031;DHT22;7090;49.436;8.490;2022-12-11T05:01:59;-0.70;99.90
14031;DHT22;7090;49.436;8.490;2022-12-11T05:04:25;-0.80;99.90
14031;DHT22;7090;49.436;8.490;2022-12-11T05:06:54;-0.60;99.90
14031;DHT22;7090;49.436;8.490;2022-12-11T05:09:20;-0.70;99.90
14031;DHT22;7090;49.436;8.490;2022-12-11T05:11:45;-0.70;99.90
14031;DHT22;7090;49.436;8.490;2022-12-11T05:14:11;-0.70;99.90
14031;DHT22;7090;49.436;8.490;2022-12-11T05:16:37;-0.70;99.90
14031;DHT22;7090;49.436;8.490;2022-12-11T05:19:02;-0.80;99.90
14031;DHT22;7090;49.436;8.490;2022-12-11T05:21:28;-0.80;99.90
14031;DHT22;7090;49.436;8.490;2022-12-11T05:23:53;-0.80;99.90
14031;DHT22;7090;49.436;8.490;2022-12-11T05:26:19;-0.80;99.90
14031;DHT22;7090;49.436;8.490;2022-12-11T05:28:49;-0.90;99.90
14031;DHT22;7090;49.436;8.490;2022-12-11T05:31:18;-0.80;99.90
14031;DHT22;7090;49.436;8.490;2022-12-11T05:33:45;-0.90;99.90
14031;DHT22;7090;49.436;8.490;2022-12-11T05:36:20;-0.90;99.90
14031;DHT22;7090;49.436;8.490;2022-12-11T05:38:46;-0.90;99.90
14031;DHT22;7090;49.436;8.490;2022-12-11T05:41:14;-0.90;99.90
14031;DHT22;7090;49.436;8.490;2022-12-11T05:43:40;-0.90;99.90
14031;DHT22;7090;49.436;8.490;2022-12-11T05:46:28;-0.90;99.90
14031;DHT22;7090;49.436;8.490;2022-12-11T05:48:56;-1.00;99.90
14031;DHT22;7090;49.436;8.490;2022-12-11T05:51:23;-1.00;99.90
14031;DHT22;7090;49.436;8.490;2022-12-11T05:53:50;-1.00;99.90
14031;DHT22;7090;49.436;8.490;2022-12-11T05:56:21;-1.00;99.90
14031;DHT22;7090;49.436;8.490;2022-12-11T05:58:47;-1.10;99.90
14031;DHT22;7090;49.436;8.490;2022-12-11T06:01:26;-1.10;99.90
14031;DHT22;7090;49.436;8.490;2022-12-11T06:03:53;-1.00;99.90
14031;DHT22;7090;49.436;8.490;2022-12-11T06:06:19;-1.00;99.90
14031;DHT22;7090;49.436;8.490;2022-12-11T06:08:44;-1.10;99.90
14031;DHT22;7090;49.436;8.490;2022-12-11T06:11:11;-1.10;99.90
14031;DHT22;7090;49.436;8.490;2022-12-11T06:13:40;-1.00;99.90
14031;DHT22;7090;49.436;8.490;2022-12-11T06:16:06;-1.00;99.90
14031;DHT22;7090;49.436;8.490;2022-12-11T06:18:37;-1.00;99.90
14031;DHT22;7090;49.436;8.490;2022-12-11T06:23:42;-1.10;99.90
14031;DHT22;7090;49.436;8.490;2022-12-11T06:26:09;-1.10;99.90
14031;DHT22;7090;49.436;8.490;2022-12-11T06:28:35;-1.10;99.90
14031;DHT22;7090;49.436;8.490;2022-12-11T06:31:01;-1.20;99.90
14031;DHT22;7090;49.436;8.490;2022-12-11T06:33:26;-1.20;99.90
14031;DHT22;7090;49.436;8.490;2022-12-11T06:35:52;-1.20;99.90
14031;DHT22;7090;49.436;8.490;2022-12-11T06:38:18;-1.20;99.90
14031;DHT22;7090;49.436;8.490;2022-12-11T06:40:44;-1.30;99.90
14031;DHT22;7090;49.436;8.490;2022-12-11T06:43:09;-1.30;99.90
14031;DHT22;7090;49.436;8.490;2022-12-11T06:45:37;-1.30;99.90
14031;DHT22;7090;49.436;8.490;2022-12-11T06:48:03;-1.30;99.90
14031;DHT22;7090;49.436;8.490;2022-12-11T06:50:29;-1.30;99.90
14031;DHT22;7090;49.436;8.490;2022-12-11T06:52:55;-1.30;99.90
14031;DHT22;7090;49.436;8.490;2022-12-11T06:55:21;-1.30;99.90
14031;DHT22;7090;49.436;8.490;2022-12-11T06:57:47;-1.30;99.90
14031;DHT22;7090;49.436;8.490;2022-12-11T07:00:14;-1.30;99.90
14031;DHT22;7090;49.436;8.490;2022-12-11T07:02:39;-1.40;99.90
14031;DHT22;7090;49.436;8.490;2022-12-11T07:05:05;-1.40;99.90
14031;DHT22;7090;49.436;8.490;2022-12-11T07:07:31;-1.40;99.90
14031;DHT22;7090;49.436;8.490;2022-12-11T07:09:57;-1.40;99.90
14031;DHT22;7090;49.436;8.490;2022-12-11T07:12:22;-1.50;99.90
14031;DHT22;7090;49.436;8.490;2022-12-11T07:14:48;-1.50;99.90
14031;DHT22;7090;49.436;8.490;2022-12-11T07:17:14;-1.40;99.90
14031;DHT22;7090;49.436;8.490;2022-12-11T07:19:39;-1.40;99.90
14031;DHT22;7090;49.436;8.490;2022-12-11T07:22:05;-1.40;99.90
14031;DHT22;7090;49.436;8.490;2022-12-11T07:24:30;-1.40;99.90
14031;DHT22;7090;49.436;8.490;2022-12-11T07:26:56;-1.50;99.90
14031;DHT22;7090;49.436;8.490;2022-12-11T07:29:22;-1.50;99.90
14031;DHT22;7090;49.436;8.490;2022-12-11T07:31:48;-1.60;99.90
14031;DHT22;7090;49.436;8.490;2022-12-11T07:34:13;-1.50;99.90
14031;DHT22;7090;49.436;8.490;2022-12-11T07:36:39;-1.50;99.90
14031;DHT22;7090;49.436;8.490;2022-12-11T07:39:05;-1.40;99.90
14031;DHT22;7090;49.436;8.490;2022-12-11T07:41:31;-1.40;99.90
14031;DHT22;7090;49.436;8.490;2022-12-11T07:43:58;-1.40;99.90
14031;DHT22;7090;49.436;8.490;2022-12-11T07:46:27;-1.40;99.90
14031;DHT22;7090;49.436;8.490;2022-12-11T07:48:53;-1.50;99.90
14031;DHT22;7090;49.436;8.490;2022-12-11T07:51:27;-1.50;99.90
14031;DHT22;7090;49.436;8.490;2022-12-11T07:53:56;-1.40;99.90
14031;DHT22;7090;49.436;8.490;2022-12-11T07:56:22;-1.40;99.90
14031;DHT22;7090;49.436;8.490;2022-12-11T07:58:48;-1.40;99.90
14031;DHT22;7090;49.436;8.490;2022-12-11T08:01:19;-1.50;99.90
14031;DHT22;7090;49.436;8.490;2022-12-11T08:03:46;-1.40;99.90
14031;DHT22;7090;49.436;8.490;2022-12-11T08:06:11;-1.40;99.90
14031;DHT22;7090;49.436;8.490;2022-12-11T08:08:38;-1.50;99.90
14031;DHT22;7090;49.436;8.490;2022-12-11T08:11:05;-1.50;99.90
14031;DHT22;7090;49.436;8.490;2022-12-11T08:13:31;-1.30;99.90
14031;DHT22;7090;49.436;8.490;2022-12-11T08:15:57;-1.50;99.90
14031;DHT22;7090;49.436;8.490;2022-12-11T08:18:23;-1.50;99.90
14031;DHT22;7090;49.436;8.490;2022-12-11T08:20:49;-1.40;99.90
14031;DHT22;7090;49.436;8.490;2022-12-11T08:23:15;-1.30;99.90
14031;DHT22;7090;49.436;8.490;2022-12-11T08:25:40;-1.30;99.90
14031;DHT22;7090;49.436;8.490;2022-12-11T08:28:06;-1.30;99.90
14031;DHT22;7090;49.436;8.490;2022-12-11T08:30:32;-1.20;99.90
14031;DHT22;7090;49.436;8.490;2022-12-11T08:32:58;-1.10;99.90
14031;DHT22;7090;49.436;8.490;2022-12-11T08:35:24;-1.10;99.90
14031;DHT22;7090;49.436;8.490;2022-12-11T08:37:50;-1.10;99.90
14031;DHT22;7090;49.436;8.490;2022-12-11T08:40:16;-1.10;99.90
14031;DHT22;7090;49.436;8.490;2022-12-11T08:42:41;-1.00;99.90
14031;DHT22;7090;49.436;8.490;2022-12-11T08:45:07;-1.00;99.90
14031;DHT22;7090;49.436;8.490;2022-12-11T08:47:33;-1.00;99.90
14031;DHT22;7090;49.436;8.490;2022-12-11T08:49:59;-1.00;99.90
14031;DHT22;7090;49.436;8.490;2022-12-11T08:52:24;-0.90;99.90
14031;DHT22;7090;49.436;8.490;2022-12-11T08:54:50;-0.80;99.90
14031;DHT22;7090;49.436;8.490;2022-12-11T08:57:15;-0.80;99.90
14031;DHT22;7090;49.436;8.490;2022-12-11T08:59:41;-0.80;99.90
14031;DHT22;7090;49.436;8.490;2022-12-11T09:02:10;-0.80;99.90
14031;DHT22;7090;49.436;8.490;2022-12-11T09:04:36;-0.60;99.90
14031;DHT22;7090;49.436;8.490;2022-12-11T09:07:02;-0.60;99.90
14031;DHT22;7090;49.436;8.490;2022-12-11T09:09:28;-0.40;99.90
14031;DHT22;7090;49.436;8.490;2022-12-11T09:11:53;-0.30;99.90
14031;DHT22;7090;49.436;8.490;2022-12-11T09:14:19;-0.10;99.90
14031;DHT22;7090;49.436;8.490;2022-12-11T09:16:45;0.00;99.90
14031;DHT22;7090;49.436;8.490;2022-12-11T09:19:13;0.10;99.90
14031;DHT22;7090;49.436;8.490;2022-12-11T09:21:39;0.10;99.90
14031;DHT22;7090;49.436;8.490;2022-12-11T09:24:05;0.20;99.90
14031;DHT22;7090;49.436;8.490;2022-12-11T09:26:31;0.40;99.90
14031;DHT22;7090;49.436;8.490;2022-12-11T09:28:57;0.40;99.90
14031;DHT22;7090;49.436;8.490;2022-12-11T09:31:28;0.50;99.90
14031;DHT22;7090;49.436;8.490;2022-12-11T09:33:56;0.40;99.90
14031;DHT22;7090;49.436;8.490;2022-12-11T09:36:23;0.40;99.90
14031;DHT22;7090;49.436;8.490;2022-12-11T09:38:48;0.20;99.90
14031;DHT22;7090;49.436;8.490;2022-12-11T09:43:57;0.00;99.90
14031;DHT22;7090;49.436;8.490;2022-12-11T09:46:24;0.10;99.90
14031;DHT22;7090;49.436;8.490;2022-12-11T09:48:51;0.20;99.90
14031;DHT22;7090;49.436;8.490;2022-12-11T09:53:53;0.10;99.90
14031;DHT22;7090;49.436;8.490;2022-12-11T09:56:51;0.20;99.90
14031;DHT22;7090;49.436;8.490;2022-12-11T09:59:34;0.50;99.90
14031;DHT22;7090;49.436;8.490;2022-12-11T10:04:50;0.60;99.90
14031;DHT22;7090;49.436;8.490;2022-12-11T10:17:48;0.60;99.90
14031;DHT22;7090;49.436;8.490;2022-12-11T10:22:42;0.60;99.90
14031;DHT22;7090;49.436;8.490;2022-12-11T10:25:26;0.90;99.90
14031;DHT22;7090;49.436;8.490;2022-12-11T10:27:53;1.10;99.90
14031;DHT22;7090;49.436;8.490;2022-12-11T10:30:23;1.00;99.90
14031;DHT22;7090;49.436;8.490;2022-12-11T10:33:22;1.20;99.90
14031;DHT22;7090;49.436;8.490;2022-12-11T10:35:56;1.40;99.90
14031;DHT22;7090;49.436;8.490;2022-12-11T10:38:30;1.60;99.90
14031;DHT22;7090;49.436;8.490;2022-12-11T10:40:57;1.70;99.90
14031;DHT22;7090;49.436;8.490;2022-12-11T10:43:47;1.90;99.90
14031;DHT22;7090;49.436;8.490;2022-12-11T10:46:21;2.00;99.90
14031;DHT22;7090;49.436;8.490;2022-12-11T10:48:52;2.10;99.90
14031;DHT22;7090;49.436;8.490;2022-12-11T10:51:23;2.10;99.90
14031;DHT22;7090;49.436;8.490;2022-12-11T10:53:54;2.20;99.90
14031;DHT22;7090;49.436;8.490;2022-12-11T10:56:29;2.10;99.90
14031;DHT22;7090;49.436;8.490;2022-12-11T10:58:57;2.00;99.90
14031;DHT22;7090;49.436;8.490;2022-12-11T11:01:26;1.90;99.90
14031;DHT22;7090;49.436;8.490;2022-12-11T11:04:02;1.80;99.90
14031;DHT22;7090;49.436;8.490;2022-12-11T11:06:31;1.90;99.90
14031;DHT22;7090;49.436;8.490;2022-12-11T11:08:59;1.90;99.90
14031;DHT22;7090;49.436;8.490;2022-12-11T11:11:30;1.80;99.90
14031;DHT22;7090;49.436;8.490;2022-12-11T11:14:17;1.60;99.90
14031;DHT22;7090;49.436;8.490;2022-12-11T11:16:48;2.00;99.90
14031;DHT22;7090;49.436;8.490;2022-12-11T11:21:59;2.10;99.90
14031;DHT22;7090;49.436;8.490;2022-12-11T11:24:42;1.90;99.90
14031;DHT22;7090;49.436;8.490;2022-12-11T11:27:34;2.00;99.90
14031;DHT22;7090;49.436;8.490;2022-12-11T11:30:05;2.00;99.90
14031;DHT22;7090;49.436;8.490;2022-12-11T11:32:36;2.10;99.90
14031;DHT22;7090;49.436;8.490;2022-12-11T11:35:27;2.00;99.90
14031;DHT22;7090;49.436;8.490;2022-12-11T11:38:17;2.10;99.90
14031;DHT22;7090;49.436;8.490;2022-12-11T11:40:45;1.90;99.90
14031;DHT22;7090;49.436;8.490;2022-12-11T11:45:58;1.20;99.90
14031;DHT22;7090;49.436;8.490;2022-12-11T11:51:18;1.30;99.90
14031;DHT22;7090;49.436;8.490;2022-12-11T11:53:48;1.30;99.90
14031;DHT22;7090;49.436;8.490;2022-12-11T11:56:32;1.50;99.90
14031;DHT22;7090;49.436;8.490;2022-12-11T12:01:58;1.90;99.90
14031;DHT22;7090;49.436;8.490;2022-12-11T12:04:30;1.80;99.90
14031;DHT22;7090;49.436;8.490;2022-12-11T12:13:06;1.80;99.90
14031;DHT22;7090;49.436;8.490;2022-12-11T12:15:53;2.20;99.90
14031;DHT22;7090;49.436;8.490;2022-12-11T12:18:39;1.90;99.90
14031;DHT22;7090;49.436;8.490;2022-12-11T12:21:21;1.80;99.90
14031;DHT22;7090;49.436;8.490;2022-12-11T12:42:42;2.40;99.90
14031;DHT22;7090;49.436;8.490;2022-12-11T12:47:38;2.80;99.90
14031;DHT22;7090;49.436;8.490;2022-12-11T12:50:10;3.00;99.90
14031;DHT22;7090;49.436;8.490;2022-12-11T12:52:38;3.20;99.90
14031;DHT22;7090;49.436;8.490;2022-12-11T13:00:35;3.40;99.90
14031;DHT22;7090;49.436;8.490;2022-12-11T13:05:44;3.10;99.90
14031;DHT22;7090;49.436;8.490;2022-12-11T13:08:27;3.20;99.90
14031;DHT22;7090;49.436;8.490;2022-12-11T13:11:05;2.90;99.90
14031;DHT22;7090;49.436;8.490;2022-12-11T13:13:42;2.60;99.90
14031;DHT22;7090;49.436;8.490;2022-12-11T13:16:24;2.10;99.90
14031;DHT22;7090;49.436;8.490;2022-12-11T13:18:51;1.80;99.90
14031;DHT22;7090;49.436;8.490;2022-12-11T13:24:05;1.30;99.90
14031;DHT22;7090;49.436;8.490;2022-12-11T13:26:37;1.30;99.90
14031;DHT22;7090;49.436;8.490;2022-12-11T13:29:03;1.20;99.90
14031;DHT22;7090;49.436;8.490;2022-12-11T13:31:38;1.30;99.90
14031;DHT22;7090;49.436;8.490;2022-12-11T13:34:20;1.40;99.90
14031;DHT22;7090;49.436;8.490;2022-12-11T13:36:53;1.70;99.90
14031;DHT22;7090;49.436;8.490;2022-12-11T13:39:24;1.70;99.90
14031;DHT22;7090;49.436;8.490;2022-12-11T13:42:19;1.70;99.90
14031;DHT22;7090;49.436;8.490;2022-12-11T13:44:47;1.60;99.90
14031;DHT22;7090;49.436;8.490;2022-12-11T13:47:15;1.60;99.90
14031;DHT22;7090;49.436;8.490;2022-12-11T13:49:43;1.80;99.90
14031;DHT22;7090;49.436;8.490;2022-12-11T13:52:18;2.00;99.90
14031;DHT22;7090;49.436;8.490;2022-12-11T13:54:54;2.30;99.90
14031;DHT22;7090;49.436;8.490;2022-12-11T13:57:25;2.20;99.90
14031;DHT22;7090;49.436;8.490;2022-12-11T13:59:54;2.50;99.90
14031;DHT22;7090;49.436;8.490;2022-12-11T14:02:27;2.30;99.90
14031;DHT22;7090;49.436;8.490;2022-12-11T14:04:59;1.90;99.90
14031;DHT22;7090;49.436;8.490;2022-12-11T14:07:29;1.60;99.90
14031;DHT22;7090;49.436;8.490;2022-12-11T14:10:08;1.30;99.90
14031;DHT22;7090;49.436;8.490;2022-12-11T14:12:42;1.30;99.90
14031;DHT22;7090;49.436;8.490;2022-12-11T14:15:14;1.10;99.90
14031;DHT22;7090;49.436;8.490;2022-12-11T14:17:41;1.10;99.90
14031;DHT22;7090;49.436;8.490;2022-12-11T14:20:17;1.40;99.90
14031;DHT22;7090;49.436;8.490;2022-12-11T14:22:43;1.70;99.90
14031;DHT22;7090;49.436;8.490;2022-12-11T14:27:49;1.40;99.90
14031;DHT22;7090;49.436;8.490;2022-12-11T14:30:27;1.50;99.90
14031;DHT22;7090;49.436;8.490;2022-12-11T14:32:56;1.30;99.90
14031;DHT22;7090;49.436;8.490;2022-12-11T14:35:29;1.20;99.90
14031;DHT22;7090;49.436;8.490;2022-12-11T14:37:56;1.20;99.90
14031;DHT22;7090;49.436;8.490;2022-12-11T14:40:27;1.20;99.90
14031;DHT22;7090;49.436;8.490;2022-12-11T14:43:00;1.20;99.90
14031;DHT22;7090;49.436;8.490;2022-12-11T14:45:33;1.30;99.90
14031;DHT22;7090;49.436;8.490;2022-12-11T14:48:02;1.40;99.90
14031;DHT22;7090;49.436;8.490;2022-12-11T14:50:38;1.50;99.90
14031;DHT22;7090;49.436;8.490;2022-12-11T14:56:03;1.60;99.90
14031;DHT22;7090;49.436;8.490;2022-12-11T14:58:30;1.50;99.90
14031;DHT22;7090;49.436;8.490;2022-12-11T15:01:07;1.70;99.90
14031;DHT22;7090;49.436;8.490;2022-12-11T15:03:44;1.60;99.90
14031;DHT22;7090;49.436;8.490;2022-12-11T15:06:27;1.60;99.90
14031;DHT22;7090;49.436;8.490;2022-12-11T15:08:53;1.70;99.90
14031;DHT22;7090;49.436;8.490;2022-12-11T15:11:19;1.80;99.90
14031;DHT22;7090;49.436;8.490;2022-12-11T15:13:59;1.90;99.90
14031;DHT22;7090;49.436;8.490;2022-12-11T15:16:31;1.90;99.90
14031;DHT22;7090;49.436;8.490;2022-12-11T15:18:57;1.90;99.90
14031;DHT22;7090;49.436;8.490;2022-12-11T15:21:36;1.90;99.90
14031;DHT22;7090;49.436;8.490;2022-12-11T15:24:04;1.80;99.90
14031;DHT22;7090;49.436;8.490;2022-12-11T15:26:44;1.80;99.90
14031;DHT22;7090;49.436;8.490;2022-12-11T15:32:15;1.90;99.90
14031;DHT22;7090;49.436;8.490;2022-12-11T15:39:50;1.70;99.90
14031;DHT22;7090;49.436;8.490;2022-12-11T15:42:24;1.70;99.90
14031;DHT22;7090;49.436;8.490;2022-12-11T15:44:52;1.60;99.90
14031;DHT22;7090;49.436;8.490;2022-12-11T15:47:21;1.40;99.90
14031;DHT22;7090;49.436;8.490;2022-12-11T15:49:47;1.40;99.90
14031;DHT22;7090;49.436;8.490;2022-12-11T15:52:13;1.30;99.90
14031;DHT22;7090;49.436;8.490;2022-12-11T15:54:38;1.10;99.90
14031;DHT22;7090;49.436;8.490;2022-12-11T15:57:08;1.20;99.90
14031;DHT22;7090;49.436;8.490;2022-12-11T15:59:37;1.30;99.90
14031;DHT22;7090;49.436;8.490;2022-12-11T16:02:03;1.30;99.90
14031;DHT22;7090;49.436;8.490;2022-12-11T16:04:33;1.10;99.90
14031;DHT22;7090;49.436;8.490;2022-12-11T16:06:58;0.90;99.90
14031;DHT22;7090;49.436;8.490;2022-12-11T16:09:24;0.80;99.90
14031;DHT22;7090;49.436;8.490;2022-12-11T16:11:49;0.80;99.90
14031;DHT22;7090;49.436;8.490;2022-12-11T16:14:15;0.80;99.90
14031;DHT22;7090;49.436;8.490;2022-12-11T16:16:40;0.90;99.90
14031;DHT22;7090;49.436;8.490;2022-12-11T16:19:06;0.90;99.90
14031;DHT22;7090;49.436;8.490;2022-12-11T16:21:31;0.90;99.90
14031;DHT22;7090;49.436;8.490;2022-12-11T16:23:57;1.00;99.90
14031;DHT22;7090;49.436;8.490;2022-12-11T16:26:22;1.00;99.90
14031;DHT22;7090;49.436;8.490;2022-12-11T16:28:48;1.10;99.90
14031;DHT22;7090;49.436;8.490;2022-12-11T16:31:14;1.30;99.90
14031;DHT22;7090;49.436;8.490;2022-12-11T16:33:41;1.30;99.90
14031;DHT22;7090;49.436;8.490;2022-12-11T16:36:15;1.40;99.90
14031;DHT22;7090;49.436;8.490;2022-12-11T16:38:48;1.40;99.90
14031;DHT22;7090;49.436;8.490;2022-12-11T16:41:14;1.60;99.90
14031;DHT22;7090;49.436;8.490;2022-12-11T16:43:39;1.50;99.90
14031;DHT22;7090;49.436;8.490;2022-12-11T16:46:05;1.30;99.90
14031;DHT22;7090;49.436;8.490;2022-12-11T16:48:31;1.30;99.90
14031;DHT22;7090;49.436;8.490;2022-12-11T16:50:57;1.40;99.90
14031;DHT22;7090;49.436;8.490;2022-12-11T16:53:23;1.50;99.90
14031;DHT22;7090;49.436;8.490;2022-12-11T16:55:49;1.40;99.90
14031;DHT22;7090;49.436;8.490;2022-12-11T16:58:14;1.40;99.90
14031;DHT22;7090;49.436;8.490;2022-12-11T17:00:47;1.10;99.90
14031;DHT22;7090;49.436;8.490;2022-12-11T17:03:14;1.00;99.90
14031;DHT22;7090;49.436;8.490;2022-12-11T17:05:40;1.10;99.90
14031;DHT22;7090;49.436;8.490;2022-12-11T17:08:06;1.10;99.90
14031;DHT22;7090;49.436;8.490;2022-12-11T17:10:32;1.20;99.90
14031;DHT22;7090;49.436;8.490;2022-12-11T17:12:57;1.30;99.90
14031;DHT22;7090;49.436;8.490;2022-12-11T17:15:23;1.30;99.90
14031;DHT22;7090;49.436;8.490;2022-12-11T17:17:48;1.30;99.90
14031;DHT22;7090;49.436;8.490;2022-12-11T17:20:14;1.40;99.90
14031;DHT22;7090;49.436;8.490;2022-12-11T17:22:39;1.50;99.90
14031;DHT22;7090;49.436;8.490;2022-12-11T17:25:05;1.50;99.90
14031;DHT22;7090;49.436;8.490;2022-12-11T17:27:31;1.50;99.90
14031;DHT22;7090;49.436;8.490;2022-12-11T17:29:57;1.60;99.90
14031;DHT22;7090;49.436;8.490;2022-12-11T17:32:23;1.60;99.90
14031;DHT22;7090;49.436;8.490;2022-12-11T17:34:49;1.70;99.90
14031;DHT22;7090;49.436;8.490;2022-12-11T17:37:16;1.70;99.90
14031;DHT22;7090;49.436;8.490;2022-12-11T17:39:41;1.80;99.90
14031;DHT22;7090;49.436;8.490;2022-12-11T17:42:07;1.90;99.90
14031;DHT22;7090;49.436;8.490;2022-12-11T17:44:33;1.90;99.90
14031;DHT22;7090;49.436;8.490;2022-12-11T17:46:59;1.80;99.90